createdAt,value
2023-03-26T00:00:36.205Z,21.85
2023-03-26T00:01:41.599Z,21.84
2023-03-26T00:02:47.105Z,21.84
2023-03-26T00:03:52.524Z,21.83
2023-03-26T00:04:58.017Z,21.86
2023-03-26T00:06:03.502Z,21.84
2023-03-26T00:07:08.967Z,21.79
2023-03-26T00:08:14.308Z,21.77
2023-03-26T00:09:19.746Z,21.74
2023-03-26T00:10:25.177Z,21.73
2023-03-26T00:11:30.561Z,21.77
2023-03-26T00:12:35.938Z,21.74
2023-03-26T00:13:41.303Z,21.77
2023-03-26T00:14:46.728Z,21.75
2023-03-26T00:15:52.139Z,21.72
2023-03-26T00:16:58.181Z,21.72
2023-03-26T00:18:04.588Z,21.71
2023-03-26T00:19:10.091Z,21.73
2023-03-26T00:20:15.447Z,21.7
2023-03-26T00:21:20.930Z,21.66
2023-03-26T00:22:26.417Z,21.65
2023-03-26T00:23:31.802Z,21.63
2023-03-26T00:24:37.143Z,21.63
2023-03-26T00:25:42.504Z,21.63
2023-03-26T00:26:47.875Z,21.6
2023-03-26T00:27:53.254Z,21.61
2023-03-26T00:28:58.592Z,21.63
2023-03-26T00:30:03.983Z,21.63
2023-03-26T00:31:09.406Z,21.61
2023-03-26T00:32:14.938Z,21.61
2023-03-26T00:33:20.318Z,21.61
2023-03-26T00:34:25.664Z,21.6
2023-03-26T00:35:31.075Z,21.6
2023-03-26T00:36:36.456Z,21.6
2023-03-26T00:37:41.790Z,21.62
2023-03-26T00:38:47.121Z,21.6
2023-03-26T00:39:52.460Z,21.6
2023-03-26T00:41:06.254Z,21.59
2023-03-26T00:42:11.673Z,21.63
2023-03-26T00:43:17.020Z,21.62
2023-03-26T00:44:22.341Z,21.62
2023-03-26T00:45:27.666Z,21.6
2023-03-26T00:46:33.073Z,21.61
2023-03-26T00:47:38.547Z,21.61
2023-03-26T00:48:45.691Z,21.63
2023-03-26T00:49:51.463Z,21.65
2023-03-26T00:50:56.805Z,21.64
2023-03-26T00:52:02.136Z,21.61
2023-03-26T00:53:07.468Z,21.65
2023-03-26T00:54:12.856Z,21.6
2023-03-26T00:55:20.533Z,21.58
2023-03-26T00:56:25.926Z,21.55
2023-03-26T00:57:35.691Z,21.6
2023-03-26T00:58:41.641Z,21.59
2023-03-26T00:59:47.013Z,21.57
2023-03-26T01:00:52.466Z,21.55
2023-03-26T01:01:57.867Z,21.54
2023-03-26T01:03:03.409Z,21.55
2023-03-26T01:04:09.423Z,21.53
2023-03-26T01:05:15.237Z,21.52
2023-03-26T01:06:20.718Z,21.55
2023-03-26T01:07:26.102Z,21.59
2023-03-26T01:08:31.732Z,21.58
2023-03-26T01:09:37.107Z,21.55
2023-03-26T01:10:42.501Z,21.53
2023-03-26T01:11:47.835Z,21.57
2023-03-26T01:12:53.238Z,21.61
2023-03-26T01:13:58.575Z,21.6
2023-03-26T01:15:03.901Z,21.62
2023-03-26T01:16:09.395Z,21.57
2023-03-26T01:17:14.814Z,21.57
2023-03-26T01:18:20.177Z,21.6
2023-03-26T01:19:25.543Z,21.57
2023-03-26T01:20:30.910Z,21.58
2023-03-26T01:21:36.322Z,21.57
2023-03-26T01:22:41.663Z,21.54
2023-03-26T01:23:46.993Z,21.52
2023-03-26T01:24:52.340Z,21.52
2023-03-26T01:25:58.262Z,21.57
2023-03-26T01:27:03.591Z,21.59
2023-03-26T01:28:08.928Z,21.59
2023-03-26T01:29:14.265Z,21.57
2023-03-26T01:30:19.616Z,21.54
2023-03-26T01:31:25.067Z,21.55
2023-03-26T01:32:30.463Z,21.56
2023-03-26T01:33:36.388Z,21.53
2023-03-26T01:34:42.355Z,21.52
2023-03-26T01:35:47.749Z,21.55
2023-03-26T01:36:53.205Z,21.58
2023-03-26T01:37:58.609Z,21.6
2023-03-26T01:39:04.051Z,21.63
2023-03-26T01:40:09.465Z,21.63
2023-03-26T01:41:14.829Z,21.66
2023-03-26T01:42:20.195Z,21.66
2023-03-26T01:43:25.525Z,21.65
2023-03-26T01:44:30.869Z,21.65
2023-03-26T01:45:36.298Z,21.62
2023-03-26T01:46:41.717Z,21.64
2023-03-26T01:47:47.232Z,21.65
2023-03-26T01:48:52.733Z,21.66
2023-03-26T01:49:58.105Z,21.65
2023-03-26T01:51:03.455Z,21.64
2023-03-26T01:52:08.845Z,21.64
2023-03-26T01:53:14.315Z,21.62
2023-03-26T01:54:19.670Z,21.58
2023-03-26T01:55:25.009Z,21.59
2023-03-26T01:56:30.375Z,21.59
2023-03-26T01:57:35.850Z,21.58
2023-03-26T01:58:41.296Z,21.56
2023-03-26T01:59:46.658Z,21.56
2023-03-26T02:00:51.980Z,21.6
2023-03-26T02:01:57.429Z,21.63
2023-03-26T02:03:03.072Z,21.66
2023-03-26T02:04:08.812Z,21.67
2023-03-26T02:05:14.257Z,21.69
2023-03-26T02:06:19.659Z,21.65
2023-03-26T02:07:25.012Z,21.64
2023-03-26T02:08:30.403Z,21.61
2023-03-26T02:09:35.742Z,21.59
2023-03-26T02:10:41.080Z,21.6
2023-03-26T02:11:46.455Z,21.56
2023-03-26T02:12:51.831Z,21.53
2023-03-26T02:13:57.183Z,21.5
2023-03-26T02:15:02.504Z,21.51
2023-03-26T02:16:07.865Z,21.49
2023-03-26T02:17:13.307Z,21.52
2023-03-26T02:18:18.680Z,21.53
2023-03-26T02:19:24.045Z,21.53
2023-03-26T02:20:29.517Z,21.53
2023-03-26T02:21:34.883Z,21.51
2023-03-26T02:22:40.233Z,21.52
2023-03-26T02:23:45.558Z,21.5
2023-03-26T02:24:51.290Z,21.51
2023-03-26T02:25:59.140Z,21.48
2023-03-26T02:27:04.506Z,21.49
2023-03-26T02:28:09.843Z,21.48
2023-03-26T02:29:15.186Z,21.48
2023-03-26T02:30:20.573Z,21.5
2023-03-26T02:31:25.940Z,21.47
2023-03-26T02:32:31.438Z,21.45
2023-03-26T02:33:36.836Z,21.46
2023-03-26T02:34:42.188Z,21.45
2023-03-26T02:35:47.676Z,21.5
2023-03-26T02:36:53.294Z,21.52
2023-03-26T02:37:58.750Z,21.54
2023-03-26T02:39:04.099Z,21.54
2023-03-26T02:40:09.417Z,21.51
2023-03-26T02:41:14.758Z,21.5
2023-03-26T02:42:22.376Z,21.48
2023-03-26T02:43:27.771Z,21.47
2023-03-26T02:44:33.135Z,21.47
2023-03-26T02:45:38.533Z,21.47
2023-03-26T02:46:43.957Z,21.47
2023-03-26T02:47:49.300Z,21.43
2023-03-26T02:48:54.964Z,21.48
2023-03-26T02:50:00.355Z,21.47
2023-03-26T02:51:05.736Z,21.44
2023-03-26T02:52:12.112Z,21.43
2023-03-26T02:53:17.464Z,21.43
2023-03-26T02:54:22.822Z,21.43
2023-03-26T02:55:28.149Z,21.44
2023-03-26T02:56:33.550Z,21.45
2023-03-26T02:57:39.009Z,21.42
2023-03-26T02:58:44.351Z,21.42
2023-03-26T02:59:49.691Z,21.43
2023-03-26T03:00:55.117Z,21.44
2023-03-26T03:02:00.690Z,21.46
2023-03-26T03:03:06.516Z,21.44
2023-03-26T03:04:12.064Z,21.46
2023-03-26T03:05:17.411Z,21.49
2023-03-26T03:06:22.778Z,21.49
2023-03-26T03:07:28.158Z,21.5
2023-03-26T03:08:33.481Z,21.51
2023-03-26T03:09:38.819Z,21.53
2023-03-26T03:10:44.146Z,21.54
2023-03-26T03:11:49.465Z,21.53
2023-03-26T03:12:54.830Z,21.52
2023-03-26T03:14:00.169Z,21.52
2023-03-26T03:15:05.491Z,21.52
2023-03-26T03:16:10.991Z,21.51
2023-03-26T03:17:16.579Z,21.51
2023-03-26T03:18:21.907Z,21.53
2023-03-26T03:19:27.289Z,21.53
2023-03-26T03:20:32.630Z,21.53
2023-03-26T03:21:38.097Z,21.53
2023-03-26T03:22:43.418Z,21.53
2023-03-26T03:23:48.766Z,21.53
2023-03-26T03:24:54.149Z,21.52
2023-03-26T03:25:59.504Z,21.52
2023-03-26T03:27:04.879Z,21.51
2023-03-26T03:28:10.230Z,21.51
2023-03-26T03:29:15.598Z,21.5
2023-03-26T03:30:21.023Z,21.48
2023-03-26T03:31:26.660Z,21.5
2023-03-26T03:32:32.244Z,21.53
2023-03-26T03:33:37.696Z,21.53
2023-03-26T03:34:43.102Z,21.51
2023-03-26T03:35:48.487Z,21.5
2023-03-26T03:36:53.954Z,21.49
2023-03-26T03:37:59.300Z,21.51
2023-03-26T03:39:04.969Z,21.51
2023-03-26T03:40:10.362Z,21.48
2023-03-26T03:41:15.759Z,21.46
2023-03-26T03:42:21.238Z,21.48
2023-03-26T03:43:26.595Z,21.48
2023-03-26T03:44:31.930Z,21.48
2023-03-26T03:45:37.394Z,21.46
2023-03-26T03:46:42.798Z,21.45
2023-03-26T03:47:48.299Z,21.47
2023-03-26T03:48:53.808Z,21.47
2023-03-26T03:49:59.260Z,21.48
2023-03-26T03:51:04.647Z,21.48
2023-03-26T03:52:10.017Z,21.46
2023-03-26T03:53:15.364Z,21.48
2023-03-26T03:54:20.806Z,21.46
2023-03-26T03:55:26.216Z,21.47
2023-03-26T03:56:34.188Z,21.49
2023-03-26T03:57:39.652Z,21.45
2023-03-26T03:58:44.987Z,21.44
2023-03-26T03:59:50.418Z,21.45
2023-03-26T04:00:55.983Z,21.46
2023-03-26T04:02:01.385Z,21.44
2023-03-26T04:03:06.805Z,21.41
2023-03-26T04:04:12.821Z,21.4
2023-03-26T04:05:18.246Z,21.4
2023-03-26T04:06:23.624Z,21.39
2023-03-26T04:07:28.997Z,21.42
2023-03-26T04:08:34.318Z,21.42
2023-03-26T04:09:39.664Z,21.44
2023-03-26T04:10:44.992Z,21.42
2023-03-26T04:11:50.400Z,21.39
2023-03-26T04:12:55.759Z,21.4
2023-03-26T04:14:01.168Z,21.41
2023-03-26T04:15:06.616Z,21.39
2023-03-26T04:16:12.081Z,21.4
2023-03-26T04:17:17.596Z,21.39
2023-03-26T04:18:22.981Z,21.4
2023-03-26T04:19:28.318Z,21.38
2023-03-26T04:20:33.679Z,21.42
2023-03-26T04:21:39.052Z,21.41
2023-03-26T04:22:44.386Z,21.39
2023-03-26T04:23:49.855Z,21.37
2023-03-26T04:24:55.196Z,21.35
2023-03-26T04:26:00.638Z,21.37
2023-03-26T04:27:05.969Z,21.37
2023-03-26T04:28:11.305Z,21.38
2023-03-26T04:29:16.631Z,21.37
2023-03-26T04:30:22.059Z,21.38
2023-03-26T04:31:27.745Z,21.4
2023-03-26T04:32:33.640Z,21.37
2023-03-26T04:33:39.060Z,21.35
2023-03-26T04:34:44.430Z,21.33
2023-03-26T04:35:49.915Z,21.34
2023-03-26T04:36:55.583Z,21.34
2023-03-26T04:38:00.929Z,21.34
2023-03-26T04:39:07.344Z,21.35
2023-03-26T04:40:12.712Z,21.35
2023-03-26T04:41:18.115Z,21.32
2023-03-26T04:42:23.483Z,21.33
2023-03-26T04:43:28.817Z,21.36
2023-03-26T04:44:34.145Z,21.39
2023-03-26T04:45:39.718Z,21.36
2023-03-26T04:46:45.075Z,21.35
2023-03-26T04:47:50.622Z,21.37
2023-03-26T04:48:56.223Z,21.39
2023-03-26T04:50:01.585Z,21.38
2023-03-26T04:51:06.953Z,21.4
2023-03-26T04:52:12.296Z,21.4
2023-03-26T04:53:17.710Z,21.4
2023-03-26T04:54:23.051Z,21.41
2023-03-26T04:55:28.668Z,21.42
2023-03-26T04:56:34.034Z,21.42
2023-03-26T04:57:40.525Z,21.39
2023-03-26T04:58:45.885Z,21.36
2023-03-26T04:59:51.217Z,21.37
2023-03-26T05:00:56.649Z,21.39
2023-03-26T05:02:12.430Z,21.36
2023-03-26T05:03:17.801Z,21.38
2023-03-26T05:04:23.177Z,21.35
2023-03-26T05:05:28.646Z,21.35
2023-03-26T05:06:34.325Z,21.35
2023-03-26T05:07:39.708Z,21.36
2023-03-26T05:08:45.090Z,21.34
2023-03-26T05:09:50.447Z,21.39
2023-03-26T05:10:55.939Z,21.42
2023-03-26T05:12:01.752Z,21.44
2023-03-26T05:13:07.185Z,21.48
2023-03-26T05:14:12.635Z,21.47
2023-03-26T05:15:18.059Z,21.47
2023-03-26T05:16:23.423Z,21.47
2023-03-26T05:17:28.989Z,21.49
2023-03-26T05:18:34.470Z,21.49
2023-03-26T05:19:39.801Z,21.47
2023-03-26T05:20:45.184Z,21.45
2023-03-26T05:21:50.594Z,21.44
2023-03-26T05:22:55.946Z,21.45
2023-03-26T05:24:01.338Z,21.46
2023-03-26T05:25:06.768Z,21.49
2023-03-26T05:26:12.122Z,21.51
2023-03-26T05:27:17.492Z,21.55
2023-03-26T05:28:22.899Z,21.6
2023-03-26T05:29:28.292Z,21.67
2023-03-26T05:30:33.638Z,21.74
2023-03-26T05:31:38.963Z,21.83
2023-03-26T05:32:44.396Z,21.89
2023-03-26T05:33:50.166Z,21.96
2023-03-26T05:34:55.685Z,22.01
2023-03-26T05:36:01.090Z,22.07
2023-03-26T05:37:06.674Z,22.11
2023-03-26T05:38:12.018Z,22.15
2023-03-26T05:39:17.413Z,22.15
2023-03-26T05:40:22.734Z,22.19
2023-03-26T05:41:28.062Z,22.24
2023-03-26T05:42:33.401Z,22.25
2023-03-26T05:43:38.738Z,22.26
2023-03-26T05:44:44.118Z,22.26
2023-03-26T05:45:49.454Z,22.28
2023-03-26T05:46:54.889Z,22.31
2023-03-26T05:48:00.262Z,22.32
2023-03-26T05:49:05.737Z,22.33
2023-03-26T05:50:11.155Z,22.33
2023-03-26T05:51:16.584Z,22.31
2023-03-26T05:52:21.924Z,22.32
2023-03-26T05:53:27.283Z,22.3
2023-03-26T05:54:32.840Z,22.3
2023-03-26T05:55:38.210Z,22.28
2023-03-26T05:56:45.926Z,22.27
2023-03-26T05:57:51.420Z,22.25
2023-03-26T05:58:56.781Z,22.25
2023-03-26T06:00:02.223Z,22.23
2023-03-26T06:01:07.589Z,22.22
2023-03-26T06:02:12.992Z,22.21
2023-03-26T06:03:18.448Z,22.21
2023-03-26T06:04:24.177Z,22.19
2023-03-26T06:05:29.896Z,22.18
2023-03-26T06:06:35.313Z,22.17
2023-03-26T06:07:40.669Z,22.15
2023-03-26T06:08:46.266Z,22.12
2023-03-26T06:10:03.702Z,22.11
2023-03-26T06:11:09.064Z,22.11
2023-03-26T06:12:14.403Z,22.09
2023-03-26T06:13:19.841Z,22.07
2023-03-26T06:14:25.213Z,22.06
2023-03-26T06:15:30.566Z,22.03
2023-03-26T06:16:36.049Z,22.02
2023-03-26T06:17:41.500Z,22.01
2023-03-26T06:18:47.026Z,22
2023-03-26T06:20:00.737Z,21.99
2023-03-26T06:21:06.117Z,21.97
2023-03-26T06:22:11.484Z,21.97
2023-03-26T06:23:16.822Z,21.98
2023-03-26T06:24:22.183Z,21.99
2023-03-26T06:25:29.809Z,21.99
2023-03-26T06:26:35.203Z,21.99
2023-03-26T06:27:40.586Z,21.99
2023-03-26T06:28:45.925Z,21.98
2023-03-26T06:29:51.259Z,21.96
2023-03-26T06:30:57.037Z,21.97
2023-03-26T06:32:12.674Z,21.98
2023-03-26T06:33:24.776Z,21.98
2023-03-26T06:34:31.104Z,21.96
2023-03-26T06:35:36.491Z,21.97
2023-03-26T06:36:41.967Z,21.96
2023-03-26T06:37:47.308Z,21.95
2023-03-26T06:38:52.887Z,21.93
2023-03-26T06:39:59.291Z,21.92
2023-03-26T06:41:04.680Z,21.92
2023-03-26T06:42:10.068Z,21.9
2023-03-26T06:43:15.416Z,21.93
2023-03-26T06:44:20.869Z,21.98
2023-03-26T06:45:26.182Z,21.96
2023-03-26T06:46:31.535Z,21.94
2023-03-26T06:47:37.054Z,21.93
2023-03-26T06:48:42.547Z,21.92
2023-03-26T06:49:47.918Z,21.92
2023-03-26T06:50:53.371Z,21.88
2023-03-26T06:51:59.320Z,21.88
2023-03-26T06:53:04.643Z,21.87
2023-03-26T06:54:10.107Z,21.9
2023-03-26T06:55:15.487Z,21.88
2023-03-26T06:56:20.842Z,21.87
2023-03-26T06:57:26.243Z,21.86
2023-03-26T06:58:31.609Z,21.89
2023-03-26T06:59:37.006Z,21.91
2023-03-26T07:00:42.430Z,22.01
2023-03-26T07:01:47.922Z,22.01
2023-03-26T07:02:53.377Z,21.94
2023-03-26T07:03:59.951Z,21.88
2023-03-26T07:05:05.639Z,21.84
2023-03-26T07:06:11.002Z,21.8
2023-03-26T07:07:17.433Z,21.76
2023-03-26T07:08:24.503Z,21.75
2023-03-26T07:09:31.144Z,21.71
2023-03-26T07:10:38.707Z,21.69
2023-03-26T07:11:44.075Z,21.68
2023-03-26T07:12:49.423Z,21.66
2023-03-26T07:13:54.817Z,21.66
2023-03-26T07:15:00.380Z,21.64
2023-03-26T07:16:05.831Z,21.65
2023-03-26T07:17:11.441Z,21.65
2023-03-26T07:18:16.768Z,21.65
2023-03-26T07:19:22.157Z,21.6
2023-03-26T07:20:27.549Z,21.6
2023-03-26T07:21:32.954Z,21.67
2023-03-26T07:22:38.283Z,21.62
2023-03-26T07:23:43.716Z,21.64
2023-03-26T07:24:49.056Z,21.59
2023-03-26T07:25:54.391Z,21.62
2023-03-26T07:27:00.765Z,21.59
2023-03-26T07:28:06.102Z,21.59
2023-03-26T07:29:11.993Z,21.61
2023-03-26T07:30:17.350Z,21.59
2023-03-26T07:31:22.763Z,21.6
2023-03-26T07:32:28.469Z,21.59
2023-03-26T07:33:33.891Z,21.62
2023-03-26T07:34:39.319Z,21.6
2023-03-26T07:35:44.668Z,21.66
2023-03-26T07:36:50.178Z,21.65
2023-03-26T07:37:55.530Z,21.68
2023-03-26T07:39:00.897Z,21.67
2023-03-26T07:40:06.260Z,21.7
2023-03-26T07:41:11.703Z,21.68
2023-03-26T07:42:17.043Z,21.58
2023-03-26T07:43:22.380Z,21.65
2023-03-26T07:44:27.736Z,21.62
2023-03-26T07:45:33.126Z,21.62
2023-03-26T07:46:38.591Z,21.61
2023-03-26T07:47:44.015Z,21.67
2023-03-26T07:48:49.463Z,21.71
2023-03-26T07:49:54.926Z,21.71
2023-03-26T07:51:00.631Z,21.69
2023-03-26T07:52:06.026Z,21.67
2023-03-26T07:53:11.391Z,21.67
2023-03-26T07:54:16.736Z,21.65
2023-03-26T07:55:22.123Z,21.64
2023-03-26T07:56:27.481Z,21.62
2023-03-26T07:57:33.186Z,21.62
2023-03-26T07:58:38.848Z,21.61
2023-03-26T07:59:44.233Z,21.6
2023-03-26T08:00:49.556Z,21.6
2023-03-26T08:01:55.354Z,21.62
2023-03-26T08:03:00.953Z,21.6
2023-03-26T08:04:23.554Z,21.6
2023-03-26T08:05:30.767Z,21.62
2023-03-26T08:06:36.151Z,21.63
2023-03-26T08:07:41.486Z,21.61
2023-03-26T08:08:46.805Z,21.62
2023-03-26T08:09:52.211Z,21.6
2023-03-26T08:10:57.622Z,21.58
2023-03-26T08:12:03.199Z,21.59
2023-03-26T08:13:08.562Z,21.57
2023-03-26T08:14:13.914Z,21.54
2023-03-26T08:15:19.305Z,21.57
2023-03-26T08:16:24.711Z,21.61
2023-03-26T08:17:32.411Z,21.65
2023-03-26T08:18:37.919Z,21.7
2023-03-26T08:19:43.296Z,21.74
2023-03-26T08:20:48.644Z,21.78
2023-03-26T08:21:54.009Z,21.82
2023-03-26T08:22:59.357Z,21.85
2023-03-26T08:24:04.783Z,21.89
2023-03-26T08:25:10.200Z,21.91
2023-03-26T08:26:15.561Z,21.93
2023-03-26T08:27:20.943Z,21.98
2023-03-26T08:28:28.513Z,22
2023-03-26T08:29:33.872Z,22.03
2023-03-26T08:30:39.220Z,22.06
2023-03-26T08:31:44.677Z,22.07
2023-03-26T08:32:50.056Z,22.12
2023-03-26T08:33:55.586Z,22.13
2023-03-26T08:35:00.911Z,22.11
2023-03-26T08:36:06.306Z,22.13
2023-03-26T08:37:11.688Z,22.13
2023-03-26T08:38:17.074Z,22.15
2023-03-26T08:39:22.452Z,22.16
2023-03-26T08:40:27.823Z,22.16
2023-03-26T08:41:33.166Z,22.16
2023-03-26T08:42:38.512Z,22.17
2023-03-26T08:43:43.880Z,22.17
2023-03-26T08:44:49.196Z,22.17
2023-03-26T08:45:54.543Z,22.17
2023-03-26T08:46:59.874Z,22.17
2023-03-26T08:48:05.245Z,22.17
2023-03-26T08:49:10.774Z,22.17
2023-03-26T08:50:16.215Z,22.2
2023-03-26T08:51:21.622Z,22.27
2023-03-26T08:52:27.015Z,22.26
2023-03-26T08:53:32.372Z,22.25
2023-03-26T08:54:37.742Z,22.21
2023-03-26T08:55:43.061Z,22.18
2023-03-26T08:56:48.409Z,22.21
2023-03-26T08:57:53.992Z,22.17
2023-03-26T08:58:59.469Z,22.11
2023-03-26T09:00:04.882Z,22.09
2023-03-26T09:01:10.207Z,22.06
2023-03-26T09:02:15.543Z,22.03
2023-03-26T09:03:20.977Z,22.03
2023-03-26T09:04:26.344Z,22.04
2023-03-26T09:05:32.748Z,22.03
2023-03-26T09:06:38.194Z,22.02
2023-03-26T09:07:43.565Z,22.02
2023-03-26T09:08:54.033Z,21.99
2023-03-26T09:10:00.050Z,21.98
2023-03-26T09:11:05.396Z,21.96
2023-03-26T09:12:10.837Z,21.95
2023-03-26T09:13:16.270Z,21.95
2023-03-26T09:14:21.660Z,21.93
2023-03-26T09:15:27.037Z,21.92
2023-03-26T09:16:32.469Z,21.92
2023-03-26T09:17:37.997Z,21.94
2023-03-26T09:18:43.522Z,21.94
2023-03-26T09:19:48.898Z,21.93
2023-03-26T09:20:54.619Z,21.92
2023-03-26T09:22:00.729Z,21.91
2023-03-26T09:23:06.108Z,21.88
2023-03-26T09:24:11.519Z,21.9
2023-03-26T09:25:16.904Z,21.91
2023-03-26T09:26:22.322Z,21.89
2023-03-26T09:27:27.648Z,21.87
2023-03-26T09:28:33.025Z,21.87
2023-03-26T09:29:38.533Z,21.82
2023-03-26T09:30:43.851Z,21.81
2023-03-26T09:31:49.266Z,21.79
2023-03-26T09:32:54.900Z,21.78
2023-03-26T09:34:00.602Z,21.79
2023-03-26T09:35:05.990Z,21.77
2023-03-26T09:36:11.550Z,21.8
2023-03-26T09:37:16.948Z,21.76
2023-03-26T09:38:22.344Z,21.76
2023-03-26T09:39:27.738Z,21.73
2023-03-26T09:40:33.116Z,21.73
2023-03-26T09:41:38.452Z,21.71
2023-03-26T09:42:43.786Z,21.72
2023-03-26T09:43:49.130Z,21.71
2023-03-26T09:44:54.464Z,21.71
2023-03-26T09:45:59.914Z,21.7
2023-03-26T09:47:05.496Z,21.71
2023-03-26T09:48:10.830Z,21.72
2023-03-26T09:49:16.229Z,21.72
2023-03-26T09:50:21.597Z,21.7
2023-03-26T09:51:27.756Z,21.71
2023-03-26T09:52:33.171Z,21.73
2023-03-26T09:53:38.550Z,21.74
2023-03-26T09:54:44.195Z,21.71
2023-03-26T09:55:49.550Z,21.69
2023-03-26T09:56:55.039Z,21.7
2023-03-26T09:58:00.753Z,21.69
2023-03-26T09:59:06.312Z,21.69
2023-03-26T10:00:11.661Z,21.7
2023-03-26T10:01:17.090Z,21.7
2023-03-26T10:02:22.624Z,21.69
2023-03-26T10:03:51.964Z,21.7
2023-03-26T10:04:57.364Z,21.7
2023-03-26T10:06:02.882Z,21.68
2023-03-26T10:07:08.330Z,21.66
2023-03-26T10:08:13.681Z,21.69
2023-03-26T10:09:19.242Z,21.68
2023-03-26T10:10:24.645Z,21.7
2023-03-26T10:11:30.051Z,21.7
2023-03-26T10:12:35.394Z,21.69
2023-03-26T10:13:43.338Z,21.68
2023-03-26T10:14:48.804Z,21.66
2023-03-26T10:15:54.133Z,21.63
2023-03-26T10:16:59.547Z,21.64
2023-03-26T10:18:05.092Z,21.66
2023-03-26T10:19:33.985Z,21.62
2023-03-26T10:20:39.317Z,21.63
2023-03-26T10:21:44.663Z,21.63
2023-03-26T10:22:50.006Z,21.61
2023-03-26T10:23:55.357Z,21.58
2023-03-26T10:25:00.703Z,21.56
2023-03-26T10:26:06.062Z,21.58
2023-03-26T10:27:11.432Z,21.59
2023-03-26T10:28:17.058Z,21.65
2023-03-26T10:29:22.458Z,21.69
2023-03-26T10:30:27.940Z,21.73
2023-03-26T10:31:33.446Z,21.74
2023-03-26T10:32:38.803Z,21.79
2023-03-26T10:33:44.241Z,21.82
2023-03-26T10:34:49.570Z,21.85
2023-03-26T10:35:55.132Z,21.88
2023-03-26T10:37:00.556Z,21.91
2023-03-26T10:38:05.901Z,21.93
2023-03-26T10:39:11.296Z,21.98
2023-03-26T10:40:46.062Z,22.01
2023-03-26T10:41:54.109Z,22.05
2023-03-26T10:42:59.542Z,22.07
2023-03-26T10:44:08.336Z,22.07
2023-03-26T10:45:14.112Z,22.1
2023-03-26T10:46:20.636Z,22.09
2023-03-26T10:47:26.184Z,22.08
2023-03-26T10:48:31.666Z,22.08
2023-03-26T10:49:37.114Z,22.08
2023-03-26T10:50:42.444Z,22.08
2023-03-26T10:51:47.786Z,22.08
2023-03-26T10:52:53.176Z,22.08
2023-03-26T10:53:58.692Z,22.06
2023-03-26T10:55:04.063Z,22.05
2023-03-26T10:56:09.576Z,22.03
2023-03-26T10:57:14.961Z,22.03
2023-03-26T10:58:20.518Z,22.03
2023-03-26T10:59:27.022Z,22.02
2023-03-26T11:00:34.690Z,22.02
2023-03-26T11:01:40.050Z,22.01
2023-03-26T11:02:45.615Z,22
2023-03-26T11:03:51.092Z,22
2023-03-26T11:04:56.444Z,21.99
2023-03-26T11:06:01.875Z,21.98
2023-03-26T11:07:07.214Z,21.99
2023-03-26T11:08:14.201Z,21.97
2023-03-26T11:09:19.591Z,21.96
2023-03-26T11:10:24.922Z,21.96
2023-03-26T11:11:30.274Z,21.94
2023-03-26T11:12:35.634Z,21.93
2023-03-26T11:13:42.011Z,21.93
2023-03-26T11:14:47.376Z,21.92
2023-03-26T11:15:52.748Z,21.94
2023-03-26T11:16:58.332Z,21.92
2023-03-26T11:18:03.941Z,21.94
2023-03-26T11:19:09.436Z,21.95
2023-03-26T11:20:14.778Z,21.97
2023-03-26T11:21:20.714Z,21.95
2023-03-26T11:22:26.245Z,21.95
2023-03-26T11:23:31.611Z,21.94
2023-03-26T11:24:38.075Z,21.94
2023-03-26T11:25:43.449Z,21.94
2023-03-26T11:26:48.816Z,21.97
2023-03-26T11:27:54.146Z,21.94
2023-03-26T11:29:03.705Z,21.94
2023-03-26T11:35:42.271Z,21.93
2023-03-26T11:36:47.935Z,21.94
2023-03-26T11:37:53.305Z,21.91
2023-03-26T11:38:58.661Z,21.91
2023-03-26T11:40:04.048Z,21.9
2023-03-26T11:41:09.512Z,21.86
2023-03-26T11:42:14.905Z,21.84
2023-03-26T11:43:20.248Z,21.81
2023-03-26T11:44:25.592Z,21.82
2023-03-26T11:45:31.008Z,21.82
2023-03-26T11:46:36.361Z,21.82
2023-03-26T11:47:41.864Z,21.79
2023-03-26T11:48:47.377Z,21.8
2023-03-26T11:49:52.738Z,21.79
2023-03-26T11:50:58.195Z,21.76
2023-03-26T11:52:03.539Z,21.76
2023-03-26T11:53:08.889Z,21.76
2023-03-26T11:54:14.369Z,21.77
2023-03-26T11:55:19.702Z,21.77
2023-03-26T11:56:25.078Z,21.76
2023-03-26T11:57:30.438Z,21.74
2023-03-26T11:58:36.144Z,21.75
2023-03-26T11:59:49.423Z,21.75
2023-03-26T12:01:02.140Z,21.75
2023-03-26T12:02:07.503Z,21.74
2023-03-26T12:03:13.033Z,21.73
2023-03-26T12:04:19.524Z,21.73
2023-03-26T12:05:25.091Z,21.74
2023-03-26T12:06:30.802Z,21.73
2023-03-26T12:07:36.246Z,21.73
2023-03-26T12:08:41.694Z,21.72
2023-03-26T12:09:47.069Z,21.79
2023-03-26T12:10:52.478Z,21.79
2023-03-26T12:11:58.259Z,21.8
2023-03-26T12:13:03.655Z,21.79
2023-03-26T12:14:09.010Z,21.76
2023-03-26T12:15:14.330Z,21.75
2023-03-26T12:16:19.735Z,21.73
2023-03-26T12:17:31.004Z,21.73
2023-03-26T12:18:37.282Z,21.71
2023-03-26T12:19:42.631Z,21.72
2023-03-26T12:20:47.979Z,21.73
2023-03-26T12:21:53.375Z,21.76
2023-03-26T12:22:58.763Z,21.81
2023-03-26T12:24:04.178Z,21.84
2023-03-26T12:25:09.680Z,21.86
2023-03-26T12:26:15.026Z,21.87
2023-03-26T12:27:20.395Z,21.89
2023-03-26T12:28:25.829Z,21.88
2023-03-26T12:29:31.235Z,21.9
2023-03-26T12:30:36.577Z,21.89
2023-03-26T12:31:42.052Z,21.89
2023-03-26T12:32:47.481Z,21.91
2023-03-26T12:33:58.638Z,21.92
2023-03-26T12:35:04.369Z,21.93
2023-03-26T12:36:09.747Z,21.93
2023-03-26T12:37:15.163Z,21.95
2023-03-26T12:38:20.517Z,21.94
2023-03-26T12:40:08.206Z,21.92
2023-03-26T12:42:26.011Z,21.92
2023-03-26T12:47:54.072Z,21.92
2023-03-26T12:49:08.616Z,21.91
2023-03-26T12:50:14.422Z,21.91
2023-03-26T12:51:19.825Z,21.91
2023-03-26T12:52:25.165Z,21.93
2023-03-26T12:53:30.510Z,21.92
2023-03-26T12:54:35.897Z,21.92
2023-03-26T12:55:42.028Z,21.91
2023-03-26T12:56:47.397Z,21.87
2023-03-26T12:58:16.112Z,21.9
2023-03-26T12:59:21.518Z,21.9
2023-03-26T13:00:26.953Z,21.87
2023-03-26T13:01:33.420Z,21.85
2023-03-26T13:02:39.027Z,21.85
2023-03-26T13:03:44.711Z,21.84
2023-03-26T13:05:02.682Z,21.82
2023-03-26T13:06:11.074Z,21.85
2023-03-26T13:07:16.417Z,21.85
2023-03-26T13:08:21.772Z,21.85
2023-03-26T13:09:27.120Z,21.82
2023-03-26T13:10:32.472Z,21.82
2023-03-26T13:11:37.941Z,21.82
2023-03-26T13:12:43.294Z,21.81
2023-03-26T13:13:48.622Z,21.8
2023-03-26T13:14:53.963Z,21.76
2023-03-26T13:15:59.330Z,21.74
2023-03-26T13:17:04.742Z,21.76
2023-03-26T13:18:11.314Z,21.77
2023-03-26T13:19:16.646Z,21.81
2023-03-26T13:20:21.993Z,21.84
2023-03-26T13:21:27.379Z,21.84
2023-03-26T13:22:35.342Z,21.85
2023-03-26T13:23:40.787Z,21.85
2023-03-26T13:24:46.138Z,21.86
2023-03-26T13:25:51.480Z,21.86
2023-03-26T13:26:57.073Z,21.87
2023-03-26T13:28:02.568Z,21.89
2023-03-26T13:29:07.921Z,21.88
2023-03-26T13:30:13.311Z,21.89
2023-03-26T13:31:18.678Z,21.9
2023-03-26T13:32:24.233Z,21.9
2023-03-26T13:33:29.709Z,21.9
2023-03-26T13:34:35.041Z,21.89
2023-03-26T13:35:40.447Z,21.9
2023-03-26T13:36:46.076Z,21.9
2023-03-26T13:37:51.796Z,21.92
2023-03-26T13:38:58.691Z,21.92
2023-03-26T13:40:05.596Z,21.93
2023-03-26T13:41:10.990Z,21.94
2023-03-26T13:42:16.346Z,21.96
2023-03-26T13:43:21.688Z,21.95
2023-03-26T13:44:27.034Z,21.95
2023-03-26T13:45:32.365Z,21.96
2023-03-26T13:46:37.703Z,21.97
2023-03-26T13:47:43.200Z,21.96
2023-03-26T13:48:48.751Z,21.95
2023-03-26T13:49:54.146Z,21.94
2023-03-26T13:50:59.538Z,21.93
2023-03-26T13:52:04.885Z,21.91
2023-03-26T13:53:10.274Z,21.92
2023-03-26T13:54:15.615Z,21.92
2023-03-26T13:55:21.046Z,21.91
2023-03-26T13:56:26.466Z,21.91
2023-03-26T13:57:31.837Z,21.92
2023-03-26T13:58:37.219Z,21.93
2023-03-26T13:59:42.599Z,21.94
2023-03-26T14:00:48.006Z,21.93
2023-03-26T14:01:53.402Z,21.93
2023-03-26T14:02:58.971Z,21.95
2023-03-26T14:04:04.938Z,21.95
2023-03-26T14:05:10.434Z,21.94
2023-03-26T14:06:15.876Z,21.94
2023-03-26T14:07:21.266Z,21.93
2023-03-26T14:08:26.596Z,21.92
2023-03-26T14:09:34.403Z,21.91
2023-03-26T14:10:39.783Z,21.89
2023-03-26T14:11:46.205Z,21.89
2023-03-26T14:12:51.576Z,21.89
2023-03-26T14:13:56.943Z,21.89
2023-03-26T14:15:02.355Z,21.87
2023-03-26T14:16:07.729Z,21.87
2023-03-26T14:17:13.241Z,21.88
2023-03-26T14:18:18.582Z,21.86
2023-03-26T14:19:24.958Z,21.85
2023-03-26T14:20:30.352Z,21.84
2023-03-26T14:21:35.683Z,21.82
2023-03-26T14:22:41.013Z,21.8